Time;durP1;ratioP1;P1;durP2;ratioP2;P2;SDS_P1;SDS_P2;PMS_P1;PMS_P2;Temp;Humidity;BMP_temperature;BMP_pressure;BME280_temperature;BME280_humidity;BME280_pressure;Samples;Min_cycle;Max_cycle;Signal;HPM_P1;HPM_P2
2021/03/24 00:01:31;;;;;;;22.67;11.73;;;8.00;83.20;;;;;;5097389;28;20036;-85
2021/03/24 00:03:57;;;;;;;24.15;12.18;;;8.00;83.10;;;;;;5098004;28;20031;-86
2021/03/24 00:06:22;;;;;;;26.60;12.35;;;8.00;83.40;;;;;;5095849;28;20434;-86
2021/03/24 00:08:48;;;;;;;25.42;12.73;;;7.90;83.20;;;;;;5096452;28;20416;-86
2021/03/24 00:11:15;;;;;;;24.27;13.20;;;7.90;83.40;;;;;;5097853;28;20066;-85
2021/03/24 00:13:41;;;;;;;21.42;12.18;;;7.90;83.20;;;;;;5097481;28;20043;-86
2021/03/24 00:16:08;;;;;;;23.25;12.88;;;8.00;83.30;;;;;;5096934;28;20368;-86
2021/03/24 00:18:34;;;;;;;25.67;13.73;;;8.00;83.20;;;;;;5096531;28;20032;-87
2021/03/24 00:21:01;;;;;;;23.48;12.60;;;8.00;83.10;;;;;;5096371;28;20036;-86
2021/03/24 00:23:27;;;;;;;19.48;12.40;;;8.00;83.10;;;;;;5095821;28;20119;-86
2021/03/24 00:25:53;;;;;;;25.67;13.10;;;8.10;83.40;;;;;;5095283;28;20139;-86
2021/03/24 00:28:19;;;;;;;24.88;14.07;;;8.00;82.90;;;;;;5097242;28;20067;-86
2021/03/24 00:30:46;;;;;;;29.10;14.40;;;8.00;82.90;;;;;;5097399;28;20031;-86
2021/03/24 00:33:15;;;;;;;23.77;13.20;;;8.00;83.20;;;;;;5097200;28;20032;-86
2021/03/24 00:35:41;;;;;;;29.73;15.43;;;8.00;83.10;;;;;;5096837;28;20036;-86
2021/03/24 00:38:07;;;;;;;25.85;13.90;;;8.00;83.00;;;;;;5095711;28;20048;-86
2021/03/24 00:40:37;;;;;;;27.95;12.88;;;7.90;83.40;;;;;;5094885;28;20068;-86
2021/03/24 00:43:04;;;;;;;26.95;14.38;;;7.90;83.40;;;;;;5096662;28;20097;-85
2021/03/24 00:45:31;;;;;;;29.10;15.13;;;7.90;83.40;;;;;;5096726;28;20576;-86
2021/03/24 00:47:56;;;;;;;26.35;14.27;;;7.90;83.20;;;;;;5095409;28;20040;-86
2021/03/24 00:50:25;;;;;;;25.90;13.00;;;7.80;83.50;;;;;;5089133;28;20421;-86
2021/03/24 00:52:51;;;;;;;28.67;15.15;;;7.80;83.70;;;;;;5096938;28;20046;-86
2021/03/24 00:55:17;;;;;;;33.10;15.77;;;7.80;83.90;;;;;;5095150;28;20138;-86
2021/03/24 00:57:43;;;;;;;27.98;13.90;;;7.80;84.00;;;;;;5095223;28;20047;-86
2021/03/24 01:00:14;;;;;;;23.92;13.02;;;7.80;83.80;;;;;;5095765;28;20047;-85
2021/03/24 01:02:39;;;;;;;30.00;15.00;;;7.80;83.90;;;;;;5095490;28;20062;-85
2021/03/24 01:05:08;;;;;;;25.80;14.77;;;7.80;83.90;;;;;;5095722;28;20464;-85
2021/03/24 01:07:33;;;;;;;26.98;13.68;;;7.90;83.80;;;;;;5096679;28;20035;-85
2021/03/24 01:09:59;;;;;;;25.95;14.43;;;7.80;84.00;;;;;;5095419;28;20054;-85
2021/03/24 01:12:25;;;;;;;27.67;14.63;;;7.80;83.80;;;;;;5098864;28;20064;-86
2021/03/24 01:14:50;;;;;;;28.52;14.63;;;7.80;83.80;;;;;;5097005;28;20058;-86
2021/03/24 01:17:16;;;;;;;31.20;14.48;;;7.80;83.80;;;;;;5101767;28;20289;-86
2021/03/24 01:19:43;;;;;;;25.80;13.40;;;7.80;84.20;;;;;;5095751;28;20105;-86
2021/03/24 01:22:08;;;;;;;30.58;15.15;;;7.80;84.10;;;;;;5092909;28;20044;-86
2021/03/24 01:24:34;;;;;;;35.40;15.30;;;7.80;84.30;;;;;;5095423;28;20270;-86
2021/03/24 01:26:59;;;;;;;25.10;13.55;;;7.80;84.10;;;;;;5096074;28;20046;-85
2021/03/24 01:29:25;;;;;;;31.48;14.23;;;7.80;84.00;;;;;;5095091;28;20046;-86
2021/03/24 01:31:50;;;;;;;25.55;13.32;;;7.80;84.30;;;;;;5095705;28;20052;-87
2021/03/24 01:34:16;;;;;;;27.63;14.95;;;7.80;83.90;;;;;;5094671;28;20093;-86
2021/03/24 01:36:41;;;;;;;28.52;15.85;;;7.80;84.00;;;;;;5095297;28;20051;-86
2021/03/24 01:39:06;;;;;;;30.05;15.20;;;7.80;83.90;;;;;;5096229;28;20120;-86
2021/03/24 01:41:32;;;;;;;26.77;15.82;;;7.80;83.70;;;;;;5094477;28;20050;-86
2021/03/24 01:43:59;;;;;;;26.20;15.13;;;7.80;83.70;;;;;;5095202;28;20086;-85
2021/03/24 01:46:24;;;;;;;29.35;15.98;;;7.80;83.60;;;;;;5096076;28;20036;-85
2021/03/24 01:49:16;;;;;;;31.67;15.23;;;7.80;83.80;;;;;;5095150;28;20035;-86
2021/03/24 01:51:47;;;;;;;29.10;14.63;;;7.80;83.50;;;;;;5082582;28;20378;-86
2021/03/24 01:54:17;;;;;;;29.67;15.65;;;7.80;83.70;;;;;;5094583;28;20051;-87
2021/03/24 01:56:45;;;;;;;30.33;15.98;;;7.80;83.60;;;;;;5095628;28;20044;-86
2021/03/24 01:59:11;;;;;;;31.67;15.73;;;7.80;83.70;;;;;;5094827;28;20077;-86
2021/03/24 02:01:37;;;;;;;29.83;14.98;;;7.80;83.30;;;;;;5094734;28;20642;-86
2021/03/24 02:04:03;;;;;;;31.23;15.30;;;7.80;83.40;;;;;;5094657;28;20040;-86
2021/03/24 02:06:51;;;;;;;32.20;16.20;;;7.70;83.70;;;;;;5094366;28;20040;-86
2021/03/24 02:09:42;;;;;;;32.53;15.55;;;7.70;84.20;;;;;;5095862;28;20470;-86
2021/03/24 02:12:22;;;;;;;31.35;15.25;;;7.60;83.90;;;;;;5094777;28;20043;-86
2021/03/24 02:15:17;;;;;;;28.77;16.45;;;7.60;83.80;;;;;;5094751;28;20116;-87
2021/03/24 02:17:45;;;;;;;26.35;15.10;;;7.60;83.60;;;;;;5085375;28;20044;-86
2021/03/24 02:20:34;;;;;;;33.05;16.90;;;7.60;83.60;;;;;;5094444;28;20036;-86
2021/03/24 02:23:48;;;;;;;30.23;16.65;;;7.60;84.20;;;;;;5095475;28;20397;-87
2021/03/24 02:26:39;;;;;;;25.27;14.18;;;7.60;84.20;;;;;;5053611;28;20071;-87
2021/03/24 02:29:06;;;;;;;27.33;14.75;;;7.60;83.90;;;;;;5094630;28;20056;-86
2021/03/24 02:31:34;;;;;;;33.92;16.65;;;7.60;84.10;;;;;;5094312;28;20119;-86
2021/03/24 02:34:03;;;;;;;32.25;15.73;;;7.60;84.00;;;;;;5094563;28;20035;-85
2021/03/24 02:36:31;;;;;;;29.52;17.63;;;7.60;84.20;;;;;;5095288;28;20036;-86
2021/03/24 02:38:59;;;;;;;32.38;15.98;;;7.50;84.50;;;;;;5094327;28;20032;-85
2021/03/24 02:41:27;;;;;;;32.55;17.48;;;7.50;84.10;;;;;;5085430;28;20287;-86
2021/03/24 02:43:53;;;;;;;27.90;14.82;;;7.50;84.20;;;;;;5094368;28;20039;-85
2021/03/24 02:46:20;;;;;;;29.95;15.70;;;7.50;84.30;;;;;;5095046;28;20044;-86
2021/03/24 02:48:46;;;;;;;32.30;16.70;;;7.50;84.00;;;;;;5094359;28;20040;-86
2021/03/24 02:51:16;;;;;;;34.28;18.02;;;7.50;84.40;;;;;;5095441;28;20039;-86
2021/03/24 02:53:42;;;;;;;28.88;16.58;;;7.40;85.10;;;;;;5095452;28;20044;-86
2021/03/24 02:56:10;;;;;;;32.08;17.05;;;7.40;85.00;;;;;;5095334;28;20044;-87
2021/03/24 02:58:36;;;;;;;28.50;16.10;;;7.50;84.60;;;;;;5093863;28;20123;-86
2021/03/24 03:01:07;;;;;;;29.60;17.10;;;7.40;84.30;;;;;;5094738;28;20115;-86
2021/03/24 03:03:48;;;;;;;33.97;16.30;;;7.40;84.50;;;;;;5093972;28;20038;-86
2021/03/24 03:06:16;;;;;;;31.30;16.15;;;7.40;84.60;;;;;;5096489;28;20043;-86
2021/03/24 03:08:46;;;;;;;29.85;16.80;;;7.40;84.20;;;;;;5105252;28;20043;-87
2021/03/24 03:11:17;;;;;;;30.13;16.45;;;7.40;84.40;;;;;;5093062;28;20134;-86
2021/03/24 03:14:12;;;;;;;37.03;16.95;;;7.40;84.60;;;;;;5093644;28;20133;-86
2021/03/24 03:16:52;;;;;;;33.75;16.35;;;7.50;84.70;;;;;;5094401;28;20051;-86
2021/03/24 03:19:23;;;;;;;32.10;17.20;;;7.40;84.40;;;;;;5089155;28;20473;-85
2021/03/24 03:21:55;;;;;;;36.20;16.58;;;7.40;84.20;;;;;;5097691;28;20048;-86
2021/03/24 03:24:23;;;;;;;36.75;18.00;;;7.30;84.60;;;;;;5090080;28;20113;-86
2021/03/24 03:26:53;;;;;;;37.75;17.77;;;7.40;84.60;;;;;;5097858;28;20064;-86
2021/03/24 03:29:20;;;;;;;34.05;18.02;;;7.40;84.70;;;;;;5098387;28;20314;-86
2021/03/24 03:31:49;;;;;;;35.08;16.70;;;7.40;84.80;;;;;;5096833;28;20050;-86
2021/03/24 03:34:19;;;;;;;32.47;16.50;;;7.40;84.40;;;;;;5096635;28;20028;-86
2021/03/24 03:36:47;;;;;;;32.50;16.73;;;7.40;84.60;;;;;;5097394;28;20060;-86
2021/03/24 03:39:18;;;;;;;36.40;18.50;;;7.40;84.50;;;;;;5097111;28;20048;-86
2021/03/24 03:41:46;;;;;;;33.00;17.13;;;7.50;84.10;;;;;;5097484;28;20093;-86
2021/03/24 03:44:15;;;;;;;31.25;16.13;;;7.50;84.10;;;;;;5098648;28;20382;-86
2021/03/24 03:46:49;;;;;;;31.25;16.45;;;7.50;84.20;;;;;;5097248;28;20032;-85
2021/03/24 03:49:14;;;;;;;37.00;18.65;;;7.50;84.10;;;;;;5097966;28;20134;-85
2021/03/24 03:51:45;;;;;;;35.10;17.35;;;7.50;83.50;;;;;;5097336;28;20390;-86
2021/03/24 03:54:11;;;;;;;35.17;17.63;;;7.40;83.80;;;;;;5096391;28;20286;-86
2021/03/24 03:56:58;;;;;;;31.02;16.08;;;7.40;84.10;;;;;;5100143;28;20123;-85
2021/03/24 03:59:30;;;;;;;29.55;16.83;;;7.40;84.20;;;;;;5097610;28;20032;-86
2021/03/24 04:02:01;;;;;;;32.90;18.05;;;7.30;84.10;;;;;;5097239;28;20135;-85
2021/03/24 04:04:37;;;;;;;30.20;17.02;;;7.20;84.50;;;;;;5097970;28;20040;-85
2021/03/24 04:07:06;;;;;;;34.55;17.88;;;7.20;84.80;;;;;;5096807;28;20085;-85
2021/03/24 04:09:35;;;;;;;32.85;17.88;;;7.20;84.90;;;;;;5098111;28;20040;-85
2021/03/24 04:12:04;;;;;;;36.92;18.25;;;7.20;84.60;;;;;;5097620;28;20036;-86
2021/03/24 04:14:30;;;;;;;37.63;18.13;;;7.20;85.30;;;;;;5093172;28;20416;-85
2021/03/24 04:16:56;;;;;;;32.35;18.10;;;7.20;84.90;;;;;;5097214;28;20054;-85
2021/03/24 04:19:25;;;;;;;35.22;19.27;;;7.20;84.90;;;;;;5096620;28;20028;-86
2021/03/24 04:21:58;;;;;;;32.60;17.48;;;7.20;84.90;;;;;;5097194;28;20101;-86
2021/03/24 04:24:30;;;;;;;38.08;17.70;;;7.20;84.60;;;;;;5095630;28;20111;-86
2021/03/24 04:26:58;;;;;;;38.03;19.50;;;7.10;85.30;;;;;;5097623;28;20044;-86
2021/03/24 04:29:35;;;;;;;33.75;18.25;;;7.10;85.10;;;;;;5097119;28;20071;-85
2021/03/24 04:32:03;;;;;;;33.47;17.00;;;7.10;84.80;;;;;;5095984;28;20309;-85
2021/03/24 04:34:30;;;;;;;37.67;18.38;;;7.20;84.90;;;;;;5097869;28;20126;-86
2021/03/24 04:37:29;;;;;;;34.17;17.70;;;7.20;84.80;;;;;;5095804;28;20043;-85
2021/03/24 04:40:09;;;;;;;37.67;18.50;;;7.20;84.70;;;;;;5096180;28;20032;-85
2021/03/24 04:42:48;;;;;;;37.47;18.50;;;7.10;85.40;;;;;;5087411;28;20115;-85
2021/03/24 04:45:46;;;;;;;45.88;18.10;;;7.10;84.70;;;;;;5096061;28;20151;-85
2021/03/24 04:48:35;;;;;;;35.47;18.00;;;7.10;85.00;;;;;;5095455;28;20066;-85
2021/03/24 04:51:06;;;;;;;32.28;17.20;;;7.10;85.30;;;;;;5097077;28;20032;-84
2021/03/24 04:53:39;;;;;;;35.25;18.65;;;7.10;85.20;;;;;;5096546;28;20185;-85
2021/03/24 04:56:05;;;;;;;;;;;7.10;85.80;;;;;;5096063;28;20040;-86
2021/03/24 04:58:42;;;;;;;30.90;17.33;;;7.20;85.20;;;;;;5096021;28;19912;-86
2021/03/24 05:01:35;;;;;;;40.17;19.23;;;7.10;85.30;;;;;;5096667;28;20047;-85
2021/03/24 05:04:07;;;;;;;38.67;19.13;;;7.10;85.10;;;;;;5096325;28;20040;-85
2021/03/24 05:06:40;;;;;;;37.97;19.60;;;7.10;85.50;;;;;;5094740;28;20310;-85
2021/03/24 05:09:07;;;;;;;38.33;19.40;;;7.10;85.50;;;;;;5095370;28;20144;-85
2021/03/24 05:11:38;;;;;;;31.40;18.02;;;7.10;85.30;;;;;;5095363;28;20060;-86
2021/03/24 05:14:24;;;;;;;41.10;19.05;;;7.00;85.40;;;;;;5093449;28;20036;-86
2021/03/24 05:16:58;;;;;;;37.10;19.40;;;7.10;85.20;;;;;;5095495;28;20024;-86
2021/03/24 05:19:27;;;;;;;40.50;19.70;;;7.10;85.20;;;;;;5095875;28;20028;-85
2021/03/24 05:22:18;;;;;;;38.00;19.60;;;7.10;85.30;;;;;;5092153;28;20046;-86
2021/03/24 05:24:46;;;;;;;38.78;19.23;;;7.10;85.10;;;;;;5089635;28;20047;-85
2021/03/24 05:27:32;;;;;;;34.42;18.63;;;7.10;85.10;;;;;;5094962;28;20454;-85
2021/03/24 05:30:05;;;;;;;49.47;21.88;;;7.10;85.60;;;;;;5094626;28;20050;-85
2021/03/24 05:32:38;;;;;;;40.42;19.52;;;7.10;85.30;;;;;;5090498;28;20036;-85
2021/03/24 05:35:22;;;;;;;38.30;19.60;;;7.20;85.20;;;;;;5090262;28;20122;-86
2021/03/24 05:37:48;;;;;;;35.40;17.80;;;7.20;85.10;;;;;;5092714;28;20042;-86
2021/03/24 05:40:51;;;;;;;41.15;18.90;;;7.20;84.90;;;;;;5091203;28;20032;-85
2021/03/24 05:43:40;;;;;;;40.53;17.90;;;7.30;85.00;;;;;;5092972;28;20377;-86
2021/03/24 05:46:22;;;;;;;42.47;19.85;;;7.30;84.40;;;;;;5092644;28;20369;-85
2021/03/24 05:49:18;;;;;;;26.92;15.88;;;7.20;84.70;;;;;;5094407;28;20294;-85
2021/03/24 05:52:07;;;;;;;48.70;19.65;;;7.20;85.10;;;;;;5080553;28;20062;-84
2021/03/24 05:54:43;;;;;;;40.40;18.67;;;7.20;85.00;;;;;;5065218;28;20056;-85
2021/03/24 05:57:21;;;;;;;38.22;19.15;;;7.30;84.60;;;;;;5093105;28;20043;-86
2021/03/24 06:00:22;;;;;;;42.55;19.33;;;7.30;84.90;;;;;;5093435;28;20424;-86
2021/03/24 06:03:03;;;;;;;38.42;17.90;;;7.20;84.00;;;;;;5092040;28;20044;-85
2021/03/24 06:05:46;;;;;;;35.58;19.88;;;7.20;84.40;;;;;;5090617;28;20048;-86
2021/03/24 06:08:49;;;;;;;38.08;19.55;;;7.20;84.60;;;;;;5107631;27;20036;-86
2021/03/24 06:11:26;;;;;;;33.47;18.17;;;7.30;84.90;;;;;;5076523;28;20036;-85
2021/03/24 06:14:16;;;;;;;39.28;19.20;;;7.30;84.50;;;;;;5073238;28;20162;-84
2021/03/24 06:17:29;;;;;;;39.28;19.38;;;7.30;84.60;;;;;;5076342;28;20087;-85
2021/03/24 06:20:09;;;;;;;38.33;19.70;;;7.40;84.40;;;;;;5074897;28;20462;-86
2021/03/24 06:23:12;;;;;;;34.72;19.23;;;7.40;84.10;;;;;;5092901;28;20036;-85
2021/03/24 06:25:57;;;;;;;34.13;18.77;;;7.40;83.80;;;;;;5092715;28;20056;-86
2021/03/24 06:28:57;;;;;;;41.28;19.63;;;7.40;83.80;;;;;;5092689;28;20074;-85
2021/03/24 06:31:36;;;;;;;37.75;18.80;;;7.50;83.70;;;;;;5092446;28;20476;-85
2021/03/24 06:34:29;;;;;;;40.75;21.00;;;7.60;83.20;;;;;;5076354;28;20110;-86
2021/03/24 06:37:13;;;;;;;;;;;7.60;83.00;;;;;;5077647;28;20050;-86
2021/03/24 06:40:43;;;;;;;38.45;18.77;;;7.60;82.80;;;;;;5093166;28;19961;-86
2021/03/24 06:43:25;;;;;;;35.00;18.65;;;7.70;82.70;;;;;;5050718;28;20076;-87
2021/03/24 06:46:22;;;;;;;34.63;18.58;;;7.70;82.00;;;;;;5089524;28;20032;-86
2021/03/24 06:49:30;;;;;;;39.08;18.95;;;7.70;82.40;;;;;;5072670;28;20135;-87
2021/03/24 06:52:27;;;;;;;35.42;17.15;;;7.80;82.60;;;;;;5070493;28;20060;-85
2021/03/24 06:55:30;;;;;;;37.55;18.63;;;7.80;83.30;;;;;;5076113;28;20093;-85
2021/03/24 06:58:26;;;;;;;37.47;19.55;;;7.90;82.60;;;;;;5075833;28;20101;-85
2021/03/24 07:01:29;;;;;;;45.00;19.35;;;8.00;82.40;;;;;;5079385;28;20040;-85
2021/03/24 07:04:19;;;;;;;36.08;19.73;;;8.00;82.30;;;;;;5087964;28;20083;-86
2021/03/24 07:07:16;;;;;;;32.05;18.30;;;8.10;82.30;;;;;;5087759;28;20417;-86
2021/03/24 07:09:58;;;;;;;36.50;19.42;;;8.10;81.50;;;;;;5095954;28;20051;-85
2021/03/24 07:12:37;;;;;;;32.35;18.52;;;8.20;81.80;;;;;;5096309;28;20036;-86
2021/03/24 07:15:22;;;;;;;40.63;17.75;;;8.20;80.80;;;;;;5097039;28;20048;-86
2021/03/24 07:18:25;;;;;;;37.97;20.02;;;8.30;81.10;;;;;;5093630;28;20036;-85
2021/03/24 07:21:10;;;;;;;;;;;8.40;79.90;;;;;;5095740;28;20299;-84
2021/03/24 07:23:36;;;;;;;35.88;17.75;;;8.40;80.80;;;;;;5096736;28;19908;-86
2021/03/24 07:26:36;;;;;;;38.50;18.73;;;8.50;80.80;;;;;;5096601;28;20082;-86
2021/03/24 07:29:23;;;;;;;35.20;18.98;;;8.60;80.10;;;;;;5096491;28;20297;-86
2021/03/24 07:32:00;;;;;;;36.30;20.10;;;8.60;79.60;;;;;;5096053;28;20117;-86
2021/03/24 07:34:44;;;;;;;35.78;19.73;;;8.60;79.80;;;;;;5095567;28;20040;-86
2021/03/24 07:37:45;;;;;;;37.65;19.35;;;8.70;79.20;;;;;;5095726;28;20040;-86
2021/03/24 07:40:13;;;;;;;32.03;17.92;;;8.80;78.80;;;;;;5095845;28;20251;-86
2021/03/24 07:42:50;;;;;;;36.45;17.77;;;8.90;79.20;;;;;;5090549;28;20259;-86
2021/03/24 07:45:49;;;;;;;38.90;20.15;;;8.90;79.30;;;;;;5096582;28;20054;-86
2021/03/24 07:48:33;;;;;;;32.92;18.33;;;8.90;79.70;;;;;;5096399;28;20044;-86
2021/03/24 07:51:27;;;;;;;39.10;20.40;;;9.00;80.30;;;;;;5096093;28;20039;-86
2021/03/24 07:54:06;;;;;;;32.45;18.38;;;9.10;78.50;;;;;;5096017;28;20052;-86
2021/03/24 07:56:40;;;;;;;34.15;18.02;;;9.10;79.40;;;;;;5095966;28;20038;-86
2021/03/24 07:59:27;;;;;;;35.72;18.48;;;9.10;79.30;;;;;;5094900;28;20397;-85
2021/03/24 08:02:05;;;;;;;33.72;17.77;;;9.30;78.50;;;;;;5096689;28;20040;-87
2021/03/24 08:04:36;;;;;;;38.65;20.20;;;9.40;77.90;;;;;;5095547;28;20090;-87
2021/03/24 08:07:24;;;;;;;39.03;18.33;;;9.50;77.10;;;;;;5095782;28;20109;-87
2021/03/24 08:10:07;;;;;;;34.10;18.45;;;9.50;77.10;;;;;;5094188;28;20102;-86
2021/03/24 08:12:33;;;;;;;;;;;9.60;77.80;;;;;;5095420;28;20040;-87
2021/03/24 08:15:36;;;;;;;37.05;18.83;;;9.70;76.90;;;;;;5094015;28;19927;-86
2021/03/24 08:18:33;;;;;;;35.28;18.80;;;9.80;77.10;;;;;;5093957;28;20605;-86
2021/03/24 08:21:23;;;;;;;34.95;19.17;;;10.00;76.00;;;;;;5094744;28;20640;-87
2021/03/24 08:24:06;;;;;;;30.42;18.23;;;10.10;76.50;;;;;;5095103;28;20032;-86
2021/03/24 08:26:41;;;;;;;34.53;17.58;;;10.20;75.10;;;;;;5095120;28;20035;-85
2021/03/24 08:29:19;;;;;;;40.05;20.27;;;10.20;76.10;;;;;;5094343;28;20097;-86
2021/03/24 08:32:15;;;;;;;35.75;20.42;;;10.40;75.10;;;;;;5095039;28;20386;-85
2021/03/24 08:35:18;;;;;;;36.78;19.58;;;10.50;74.80;;;;;;5092716;28;20036;-85
2021/03/24 08:38:03;;;;;;;38.67;20.77;;;10.60;73.90;;;;;;5094817;28;20277;-85
2021/03/24 08:41:01;;;;;;;31.67;17.20;;;10.70;73.60;;;;;;5094668;28;20035;-85
2021/03/24 08:44:02;;;;;;;37.22;19.48;;;10.60;74.10;;;;;;5094329;28;20035;-86
2021/03/24 08:46:50;;;;;;;36.80;18.45;;;10.60;74.90;;;;;;5086006;28;20062;-85
2021/03/24 08:49:46;;;;;;;41.55;18.50;;;10.60;75.00;;;;;;5093909;28;20333;-84
2021/03/24 08:52:21;;;;;;;30.65;17.60;;;10.60;74.30;;;;;;5090872;28;20042;-85
2021/03/24 08:55:08;;;;;;;32.65;19.30;;;10.60;73.90;;;;;;5093212;28;20279;-84
2021/03/24 08:57:53;;;;;;;33.17;18.33;;;10.60;74.80;;;;;;5093918;28;20043;-85
2021/03/24 09:00:32;;;;;;;38.72;19.65;;;10.50;74.50;;;;;;5083309;28;20032;-84
2021/03/24 09:03:21;;;;;;;33.38;19.42;;;10.50;75.30;;;;;;5089485;28;20130;-86
2021/03/24 09:06:08;;;;;;;35.05;18.70;;;10.50;75.20;;;;;;5090177;28;20039;-84
2021/03/24 09:08:41;;;;;;;35.50;20.13;;;10.60;74.00;;;;;;5091399;28;20073;-84
2021/03/24 09:11:36;;;;;;;34.13;19.10;;;10.70;75.50;;;;;;5094235;28;20055;-85
2021/03/24 09:14:12;;;;;;;31.52;17.67;;;10.80;74.10;;;;;;5092764;28;20044;-84
2021/03/24 09:16:58;;;;;;;39.35;20.13;;;10.90;73.30;;;;;;5093485;28;20068;-84
2021/03/24 09:19:52;;;;;;;38.45;20.08;;;11.10;72.40;;;;;;5093241;28;20042;-84
2021/03/24 09:22:38;;;;;;;34.33;19.73;;;11.10;74.10;;;;;;5093597;28;20036;-85
2021/03/24 09:25:20;;;;;;;35.83;20.73;;;11.20;73.80;;;;;;5092967;28;20040;-85
2021/03/24 09:28:33;;;;;;;36.42;20.05;;;11.30;72.70;;;;;;5092532;28;20040;-85
2021/03/24 09:31:29;;;;;;;35.30;19.52;;;11.40;72.60;;;;;;5065336;28;20145;-84
2021/03/24 09:34:17;;;;;;;32.67;19.08;;;11.50;73.10;;;;;;5086416;28;20043;-84
2021/03/24 09:37:02;;;;;;;41.10;20.27;;;11.70;73.40;;;;;;5073199;28;20101;-84
2021/03/24 09:39:43;;;;;;;36.17;22.05;;;11.90;71.70;;;;;;5082531;28;20042;-84
2021/03/24 09:42:17;;;;;;;37.50;20.58;;;11.90;71.70;;;;;;5092671;28;20093;-84
2021/03/24 09:45:01;;;;;;;32.65;20.45;;;12.00;71.20;;;;;;5092787;28;20158;-84
2021/03/24 09:47:33;;;;;;;35.28;19.55;;;12.10;72.30;;;;;;5073361;28;20036;-84
2021/03/24 09:50:05;;;;;;;;;;;12.30;71.50;;;;;;5089292;28;20050;-85
2021/03/24 09:52:48;;;;;;;33.63;19.70;;;12.40;72.50;;;;;;5093636;28;19908;-84
2021/03/24 09:55:21;;;;;;;36.65;22.63;;;12.50;71.70;;;;;;5093035;28;20055;-85
2021/03/24 09:58:21;;;;;;;36.55;21.42;;;12.60;71.50;;;;;;5092604;28;20035;-85
2021/03/24 10:01:10;;;;;;;38.17;20.80;;;12.70;69.00;;;;;;5092506;28;20070;-85
2021/03/24 10:04:00;;;;;;;34.33;21.30;;;12.70;70.40;;;;;;5092847;28;20123;-86
2021/03/24 10:06:34;;;;;;;38.35;22.60;;;12.80;70.30;;;;;;5092667;28;20044;-86
2021/03/24 10:09:06;;;;;;;38.58;22.38;;;12.90;68.80;;;;;;5092218;28;20079;-86
2021/03/24 10:11:48;;;;;;;37.40;21.48;;;13.00;69.10;;;;;;5094153;28;20044;-86
2021/03/24 10:14:19;;;;;;;47.70;23.95;;;13.00;68.80;;;;;;5092624;28;20047;-86
2021/03/24 10:16:47;;;;;;;25.45;15.35;;;13.00;69.40;;;;;;5092685;28;20117;-86
2021/03/24 10:19:38;;;;;;;42.22;23.45;;;13.00;69.50;;;;;;5092011;28;20036;-84
2021/03/24 10:22:07;;;;;;;42.83;21.42;;;13.10;69.60;;;;;;5089466;28;20394;-85
2021/03/24 10:24:59;;;;;;;42.53;23.55;;;13.20;69.70;;;;;;5091897;28;20071;-86
2021/03/24 10:27:29;;;;;;;44.30;23.55;;;13.40;68.00;;;;;;5082381;28;20475;-84
2021/03/24 10:30:13;;;;;;;40.83;24.88;;;13.40;68.90;;;;;;5086271;28;20044;-85
2021/03/24 10:32:51;;;;;;;39.75;22.38;;;13.40;69.30;;;;;;5097034;28;20044;-85
2021/03/24 10:35:41;;;;;;;36.47;22.60;;;13.60;68.60;;;;;;5076912;28;20465;-85
2021/03/24 10:38:37;;;;;;;42.65;24.95;;;13.70;67.00;;;;;;5093586;28;20036;-85
2021/03/24 10:41:36;;;;;;;39.17;24.05;;;13.80;67.60;;;;;;5097428;28;20043;-85
2021/03/24 10:44:28;;;;;;;35.97;22.10;;;13.80;66.30;;;;;;5096697;28;20054;-85
2021/03/24 10:47:21;;;;;;;39.75;24.23;;;13.90;66.90;;;;;;5094630;28;20061;-85
2021/03/24 10:50:21;;;;;;;41.20;23.95;;;13.90;65.60;;;;;;5096498;28;20412;-85
2021/03/24 10:53:01;;;;;;;37.60;23.27;;;13.90;66.10;;;;;;5096140;28;20040;-85
2021/03/24 10:55:29;;;;;;;35.72;22.02;;;13.90;64.30;;;;;;5095418;28;20078;-85
2021/03/24 10:58:25;;;;;;;38.83;22.15;;;13.80;65.30;;;;;;5095859;28;20077;-86
2021/03/24 11:01:11;;;;;;;38.65;22.98;;;13.90;67.50;;;;;;5096146;28;20107;-85
2021/03/24 11:03:48;;;;;;;35.40;21.60;;;14.00;64.60;;;;;;5097686;28;20036;-85
2021/03/24 11:06:32;;;;;;;41.38;21.60;;;14.10;67.00;;;;;;5096133;28;20402;-85
2021/03/24 11:09:10;;;;;;;40.60;21.90;;;14.20;64.50;;;;;;5095357;28;20043;-84
2021/03/24 11:12:02;;;;;;;37.55;23.05;;;14.10;65.50;;;;;;5096119;28;20054;-84
2021/03/24 11:14:34;;;;;;;36.85;22.55;;;14.10;64.20;;;;;;5095605;28;20055;-84
2021/03/24 11:17:03;;;;;;;37.92;22.75;;;14.10;63.80;;;;;;5096376;28;20137;-86
2021/03/24 11:19:43;;;;;;;37.25;22.98;;;14.10;65.20;;;;;;5096119;28;20417;-85
2021/03/24 11:22:35;;;;;;;38.35;21.48;;;14.00;64.80;;;;;;5096701;28;20072;-85
2021/03/24 11:25:03;;;;;;;34.30;22.63;;;13.90;66.00;;;;;;5096321;28;20046;-85
2021/03/24 11:27:44;;;;;;;36.95;22.30;;;14.00;67.70;;;;;;5095220;28;20737;-86
2021/03/24 11:30:35;;;;;;;34.00;22.17;;;14.20;64.90;;;;;;5094831;28;20075;-85
2021/03/24 11:33:30;;;;;;;39.45;22.00;;;14.40;63.90;;;;;;5084154;28;20112;-85
2021/03/24 11:36:00;;;;;;;39.67;22.40;;;14.50;63.40;;;;;;5085970;28;20040;-86
2021/03/24 11:38:50;;;;;;;37.22;21.85;;;14.60;65.50;;;;;;5094948;28;20036;-85
2021/03/24 11:41:22;;;;;;;37.60;22.08;;;14.70;65.80;;;;;;5095519;28;20028;-85
2021/03/24 11:44:10;;;;;;;37.10;21.77;;;14.70;64.10;;;;;;5093769;28;20083;-86
2021/03/24 11:46:41;;;;;;;31.23;21.10;;;14.80;63.50;;;;;;5089247;28;20032;-85
2021/03/24 11:49:41;;;;;;;39.43;20.93;;;14.90;62.60;;;;;;5095462;28;20108;-85
2021/03/24 11:52:33;;;;;;;33.63;21.23;;;14.80;61.90;;;;;;5094876;28;20043;-85
2021/03/24 11:55:35;;;;;;;38.78;22.10;;;14.90;62.50;;;;;;5074402;28;20036;-85
2021/03/24 11:58:38;;;;;;;36.65;21.00;;;14.90;63.60;;;;;;5087303;28;20055;-85
2021/03/24 12:01:36;;;;;;;37.13;22.35;;;15.00;61.10;;;;;;5094125;28;20043;-85
2021/03/24 12:04:22;;;;;;;38.42;21.98;;;15.00;62.40;;;;;;5093593;28;20124;-85
2021/03/24 12:07:02;;;;;;;40.88;23.38;;;15.10;63.20;;;;;;5084127;28;20151;-85
2021/03/24 12:09:31;;;;;;;37.88;23.25;;;15.10;61.80;;;;;;5093366;28;20028;-85
2021/03/24 12:12:23;;;;;;;42.60;23.25;;;15.10;63.40;;;;;;5094650;28;20036;-85
2021/03/24 12:15:19;;;;;;;36.60;21.13;;;15.20;60.40;;;;;;5090606;28;20036;-85
2021/03/24 12:17:45;;;;;;;37.35;22.25;;;15.20;61.00;;;;;;5094423;28;20100;-85
2021/03/24 12:20:12;;;;;;;38.05;23.40;;;15.30;62.60;;;;;;5095497;28;20115;-83
2021/03/24 12:22:39;;;;;;;35.60;23.10;;;15.30;61.20;;;;;;5094215;28;20036;-84
2021/03/24 12:25:20;;;;;;;36.58;21.80;;;15.40;60.60;;;;;;5095470;28;20035;-84
2021/03/24 12:27:51;;;;;;;43.30;22.55;;;15.50;61.10;;;;;;5094050;28;20279;-84
2021/03/24 12:30:27;;;;;;;33.20;21.27;;;15.60;59.20;;;;;;5094533;28;20109;-85
2021/03/24 12:33:15;;;;;;;39.90;23.40;;;15.60;59.90;;;;;;5094689;28;20603;-85
2021/03/24 12:35:45;;;;;;;39.60;23.65;;;15.50;58.50;;;;;;5094571;28;20043;-85
2021/03/24 12:38:16;;;;;;;37.70;22.30;;;15.50;59.50;;;;;;5094054;28;20031;-85
2021/03/24 12:40:51;;;;;;;41.80;24.38;;;15.60;60.80;;;;;;5093636;28;20074;-85
2021/03/24 12:43:31;;;;;;;39.38;22.48;;;15.60;60.90;;;;;;5094833;28;20093;-85
2021/03/24 12:46:15;;;;;;;36.45;22.58;;;15.60;60.20;;;;;;5094356;28;20279;-85
2021/03/24 12:48:53;;;;;;;40.55;23.33;;;15.50;59.90;;;;;;5094197;28;20267;-85
2021/03/24 12:51:28;;;;;;;39.55;22.23;;;15.60;60.60;;;;;;5095295;28;20032;-85
2021/03/24 12:54:08;;;;;;;37.85;22.42;;;15.60;59.30;;;;;;5093673;28;20405;-85
2021/03/24 12:56:45;;;;;;;40.00;22.23;;;15.70;59.80;;;;;;5093654;28;20044;-85
2021/03/24 12:59:48;;;;;;;39.05;21.48;;;15.60;58.60;;;;;;5093155;28;20040;-86
2021/03/24 13:02:43;;;;;;;38.10;21.48;;;15.60;59.10;;;;;;5092975;28;20361;-86
2021/03/24 13:05:30;;;;;;;38.47;22.92;;;15.60;57.70;;;;;;5100201;28;20079;-83
2021/03/24 13:08:24;;;;;;;37.83;22.13;;;15.70;58.80;;;;;;5098541;28;20296;-86
2021/03/24 13:11:15;;;;;;;36.85;22.63;;;15.80;57.70;;;;;;5093229;28;20044;-85
2021/03/24 13:14:07;;;;;;;37.47;22.42;;;15.80;57.40;;;;;;5089705;28;20496;-84
2021/03/24 13:16:44;;;;;;;37.22;22.90;;;15.80;57.20;;;;;;5092345;28;20083;-85
2021/03/24 13:19:22;;;;;;;39.58;22.85;;;15.70;59.00;;;;;;5092322;28;20119;-85
2021/03/24 13:22:04;;;;;;;33.45;21.45;;;15.70;57.30;;;;;;5092144;28;20152;-85
2021/03/24 13:24:51;;;;;;;40.55;21.63;;;15.70;58.90;;;;;;5091515;28;20641;-86
2021/03/24 13:27:59;;;;;;;35.67;21.23;;;15.80;56.90;;;;;;5081659;28;20032;-85
2021/03/24 13:30:38;;;;;;;34.08;21.88;;;15.80;58.50;;;;;;5093094;28;20039;-86
2021/03/24 13:33:19;;;;;;;38.88;22.45;;;15.80;57.50;;;;;;5092216;28;20448;-84
2021/03/24 13:35:56;;;;;;;40.95;21.33;;;15.80;57.90;;;;;;5092798;28;20062;-85
2021/03/24 13:38:34;;;;;;;33.67;20.75;;;15.90;58.40;;;;;;5092355;28;20123;-85